Time,TemperatureF,DewpointF,PressureIn,WindDirection,WindDirectionDegrees,WindSpeedMPH,WindSpeedGustMPH,Humidity,HourlyPrecipIn,Conditions,Clouds,dailyrainin,SoftwareType,DateUTC
2013-03-08 00:01:00,32.4,25.7,30.26,East,90,4.9,8.1,76,0.00,,,0.00,WUHU216HW,2013-03-08 06:01:00,
2013-03-08 00:06:00,32.2,25.5,30.26,ESE,113,6.9,7.8,76,0.00,,,0.00,WUHU216HW,2013-03-08 06:06:00,
2013-03-08 00:11:00,32.2,25.5,30.26,East,90,4.0,8.1,76,0.00,,,0.00,WUHU216HW,2013-03-08 06:11:00,
2013-03-08 00:16:00,32.2,25.5,30.26,East,90,5.4,8.1,76,0.00,,,0.00,WUHU216HW,2013-03-08 06:16:00,
2013-03-08 00:21:00,32.2,25.5,30.26,ESE,113,6.9,8.3,76,0.00,,,0.00,WUHU216HW,2013-03-08 06:21:00,
2013-03-08 00:26:00,32.2,25.5,30.26,ESE,113,4.3,8.3,76,0.00,,,0.00,WUHU216HW,2013-03-08 06:26:00,
2013-03-08 00:31:00,32.2,25.5,30.26,ESE,113,5.4,6.9,76,0.00,,,0.00,WUHU216HW,2013-03-08 06:31:00,
2013-03-08 00:36:00,32.2,25.5,30.26,East,90,7.2,7.2,76,0.00,,,0.00,WUHU216HW,2013-03-08 06:36:00,
2013-03-08 00:41:00,32.2,25.5,30.26,ENE,68,5.6,7.2,76,0.00,,,0.00,WUHU216HW,2013-03-08 06:41:00,
2013-03-08 00:46:00,32.2,25.5,30.26,East,90,8.7,8.7,76,0.00,,,0.00,WUHU216HW,2013-03-08 06:46:00,
2013-03-08 00:51:00,32.0,25.4,30.26,ENE,68,5.1,8.7,76,0.00,,,0.00,WUHU216HW,2013-03-08 06:51:00,
2013-03-08 00:56:00,32.0,25.7,30.26,East,90,9.8,9.8,77,0.00,,,0.00,WUHU216HW,2013-03-08 06:56:00,
2013-03-08 01:01:00,32.0,25.7,30.26,ESE,113,5.1,9.8,77,0.00,,,0.00,WUHU216HW,2013-03-08 07:01:00,
2013-03-08 01:06:00,32.0,25.7,30.26,East,90,6.3,9.8,77,0.00,,,0.00,WUHU216HW,2013-03-08 07:06:00,
2013-03-08 01:11:00,32.0,25.7,30.26,East,90,5.6,7.8,77,0.00,,,0.00,WUHU216HW,2013-03-08 07:11:00,
2013-03-08 01:16:00,31.9,25.5,30.26,ESE,113,4.9,6.9,77,0.00,,,0.00,WUHU216HW,2013-03-08 07:16:00,
2013-03-08 01:21:00,32.0,25.7,30.26,ESE,113,6.7,6.9,77,0.00,,,0.00,WUHU216HW,2013-03-08 07:21:00,
2013-03-08 01:26:00,32.0,25.7,30.26,ESE,113,4.0,6.7,77,0.00,,,0.00,WUHU216HW,2013-03-08 07:26:00,
2013-03-08 01:31:00,32.0,25.7,30.26,ESE,113,4.7,6.7,77,0.00,,,0.00,WUHU216HW,2013-03-08 07:31:00,
2013-03-08 01:36:00,31.9,25.5,30.27,ESE,113,3.8,6.5,77,0.00,,,0.00,WUHU216HW,2013-03-08 07:36:00,
2013-03-08 01:41:00,31.9,25.5,30.26,East,90,6.3,8.7,77,0.00,,,0.00,WUHU216HW,2013-03-08 07:41:00,
2013-03-08 01:46:00,31.9,25.5,30.26,ENE,68,5.1,8.7,77,0.00,,,0.00,WUHU216HW,2013-03-08 07:46:00,
2013-03-08 01:51:00,31.7,25.3,30.26,ESE,113,3.4,6.3,77,0.00,,,0.00,WUHU216HW,2013-03-08 07:51:00,
2013-03-08 01:56:00,31.7,25.3,30.26,East,90,5.4,5.8,77,0.00,,,0.00,WUHU216HW,2013-03-08 07:56:00,
2013-03-08 02:01:00,31.7,25.3,30.26,East,90,5.4,5.8,77,0.00,,,0.00,WUHU216HW,2013-03-08 08:01:00,
2013-03-08 02:06:00,31.7,25.3,30.26,ESE,113,4.0,6.0,77,0.00,,,0.00,WUHU216HW,2013-03-08 08:06:00,
2013-03-08 02:11:00,31.7,25.3,30.26,ESE,113,5.8,6.0,77,0.00,,,0.00,WUHU216HW,2013-03-08 08:11:00,
2013-03-08 02:16:00,31.5,25.1,30.26,SE,135,4.7,5.8,77,0.00,,,0.00,WUHU216HW,2013-03-08 08:16:00,
2013-03-08 02:21:00,31.7,25.3,30.26,SE,135,5.1,5.8,77,0.00,,,0.00,WUHU216HW,2013-03-08 08:21:00,
2013-03-08 02:26:00,31.7,25.7,30.26,ESE,113,3.8,5.1,78,0.00,,,0.00,WUHU216HW,2013-03-08 08:26:00,
2013-03-08 02:31:00,31.7,25.7,30.26,East,90,4.0,5.1,78,0.00,,,0.00,WUHU216HW,2013-03-08 08:31:00,
2013-03-08 02:36:00,31.7,25.7,30.25,SE,135,4.7,4.9,78,0.00,,,0.00,WUHU216HW,2013-03-08 08:36:00,
2013-03-08 02:41:00,31.7,25.7,30.25,East,90,4.0,5.4,78,0.00,,,0.00,WUHU216HW,2013-03-08 08:41:00,
2013-03-08 02:46:00,31.5,25.5,30.25,East,90,2.9,5.4,78,0.00,,,0.00,WUHU216HW,2013-03-08 08:46:00,
2013-03-08 02:51:00,31.5,25.5,30.25,ESE,113,3.4,4.7,78,0.00,,,0.00,WUHU216HW,2013-03-08 08:51:00,
2013-03-08 02:56:00,31.5,25.5,30.25,ESE,113,3.4,5.1,78,0.00,,,0.00,WUHU216HW,2013-03-08 08:56:00,
2013-03-08 03:01:00,31.5,25.5,30.24,SE,135,2.9,5.1,78,0.00,,,0.00,WUHU216HW,2013-03-08 09:01:00,
2013-03-08 03:06:00,31.5,25.5,30.24,ESE,113,3.8,5.1,78,0.00,,,0.00,WUHU216HW,2013-03-08 09:06:00,
2013-03-08 03:11:00,31.7,25.7,30.24,ESE,113,4.7,5.6,78,0.00,,,0.00,WUHU216HW,2013-03-08 09:11:00,
2013-03-08 03:16:00,31.7,25.7,30.24,ESE,113,3.4,6.3,78,0.00,,,0.00,WUHU216HW,2013-03-08 09:16:00,
2013-03-08 03:21:00,31.9,25.8,30.24,ESE,113,5.6,6.3,78,0.00,,,0.00,WUHU216HW,2013-03-08 09:21:00,
2013-03-08 03:26:00,32.0,26.0,30.24,SE,135,5.4,8.3,78,0.00,,,0.00,WUHU216HW,2013-03-08 09:26:00,
2013-03-08 03:31:00,32.0,26.0,30.24,ESE,113,4.7,8.3,78,0.00,,,0.00,WUHU216HW,2013-03-08 09:31:00,
2013-03-08 03:36:00,32.2,26.2,30.25,ESE,113,4.0,7.8,78,0.00,,,0.00,WUHU216HW,2013-03-08 09:36:00,
2013-03-08 03:41:00,32.2,26.2,30.24,ESE,113,5.6,7.8,78,0.00,,,0.00,WUHU216HW,2013-03-08 09:41:00,
2013-03-08 03:46:00,32.2,26.2,30.24,ESE,113,5.4,8.5,78,0.00,,,0.00,WUHU216HW,2013-03-08 09:46:00,
2013-03-08 03:51:00,32.2,26.2,30.24,SE,135,6.3,8.9,78,0.00,,,0.00,WUHU216HW,2013-03-08 09:51:00,
2013-03-08 03:56:00,32.4,26.3,30.24,SE,135,6.7,10.5,78,0.00,,,0.00,WUHU216HW,2013-03-08 09:56:00,
2013-03-08 04:01:00,32.6,26.5,30.23,ESE,113,8.1,10.5,78,0.00,,,0.00,WUHU216HW,2013-03-08 10:01:00,
2013-03-08 04:06:00,32.4,26.3,30.23,SE,135,7.2,10.5,78,0.00,,,0.00,WUHU216HW,2013-03-08 10:06:00,
2013-03-08 04:11:00,32.4,26.3,30.24,SE,135,8.3,9.8,78,0.00,,,0.00,WUHU216HW,2013-03-08 10:11:00,
2013-03-08 04:16:00,32.4,26.3,30.24,ESE,113,8.7,8.7,78,0.00,,,0.00,WUHU216HW,2013-03-08 10:16:00,
2013-03-08 04:21:00,32.6,26.5,30.23,ESE,113,7.6,8.7,78,0.00,,,0.00,WUHU216HW,2013-03-08 10:21:00,
2013-03-08 04:26:00,32.6,26.5,30.23,ESE,113,7.2,8.9,78,0.00,,,0.00,WUHU216HW,2013-03-08 10:26:00,
2013-03-08 04:31:00,32.6,26.5,30.24,ESE,113,7.2,8.9,78,0.00,,,0.00,WUHU216HW,2013-03-08 10:31:00,
2013-03-08 04:36:00,32.6,26.5,30.23,ESE,113,4.7,8.3,78,0.00,,,0.00,WUHU216HW,2013-03-08 10:36:00,
2013-03-08 04:41:00,32.4,26.3,30.23,ESE,113,5.4,8.3,78,0.00,,,0.00,WUHU216HW,2013-03-08 10:41:00,
2013-03-08 04:46:00,32.4,26.3,30.24,SE,135,5.8,6.9,78,0.00,,,0.00,WUHU216HW,2013-03-08 10:46:00,
2013-03-08 04:51:00,32.4,26.3,30.23,SSE,158,6.5,7.2,78,0.00,,,0.00,WUHU216HW,2013-03-08 10:51:00,
2013-03-08 04:56:00,32.4,26.3,30.23,East,90,4.0,7.2,78,0.00,,,0.00,WUHU216HW,2013-03-08 10:56:00,
2013-03-08 05:01:00,32.4,26.3,30.23,ESE,113,3.8,6.9,78,0.00,,,0.00,WUHU216HW,2013-03-08 11:01:00,
2013-03-08 05:06:00,32.4,26.3,30.23,ESE,113,3.6,6.3,78,0.00,,,0.00,WUHU216HW,2013-03-08 11:06:00,
2013-03-08 05:11:00,32.4,26.3,30.23,SE,135,5.4,6.9,78,0.00,,,0.00,WUHU216HW,2013-03-08 11:11:00,
2013-03-08 05:16:00,32.4,26.3,30.23,SSE,158,4.5,7.4,78,0.00,,,0.00,WUHU216HW,2013-03-08 11:16:00,
2013-03-08 05:21:00,32.4,26.3,30.23,SE,135,4.3,7.4,78,0.00,,,0.00,WUHU216HW,2013-03-08 11:21:00,
2013-03-08 05:26:00,32.4,26.3,30.23,ESE,113,4.3,6.3,78,0.00,,,0.00,WUHU216HW,2013-03-08 11:26:00,
2013-03-08 05:31:00,32.2,26.2,30.23,SE,135,5.8,5.8,78,0.00,,,0.00,WUHU216HW,2013-03-08 11:31:00,
2013-03-08 05:36:00,32.2,26.2,30.23,ESE,113,5.4,6.9,78,0.00,,,0.00,WUHU216HW,2013-03-08 11:36:00,
2013-03-08 05:41:00,32.2,26.2,30.24,ESE,113,5.4,7.6,78,0.00,,,0.00,WUHU216HW,2013-03-08 11:41:00,
2013-03-08 05:46:00,32.2,26.2,30.24,East,90,4.3,7.6,78,0.00,,,0.00,WUHU216HW,2013-03-08 11:46:00,
2013-03-08 05:51:00,32.2,26.5,30.24,SE,135,4.9,8.7,79,0.00,,,0.00,WUHU216HW,2013-03-08 11:51:00,
2013-03-08 05:56:00,32.2,26.5,30.24,ESE,113,6.9,9.2,79,0.00,,,0.00,WUHU216HW,2013-03-08 11:56:00,
2013-03-08 06:01:00,32.4,26.6,30.24,SE,135,8.1,9.2,79,0.00,,,0.00,WUHU216HW,2013-03-08 12:01:00,
2013-03-08 06:06:00,32.4,26.6,30.24,East,90,5.1,8.5,79,0.00,,,0.00,WUHU216HW,2013-03-08 12:06:00,
2013-03-08 06:11:00,32.4,26.6,30.25,SE,135,6.5,9.2,79,0.00,,,0.00,WUHU216HW,2013-03-08 12:11:00,
2013-03-08 06:16:00,32.4,26.6,30.25,SE,135,8.1,9.2,79,0.00,,,0.00,WUHU216HW,2013-03-08 12:16:00,
2013-03-08 06:21:00,32.6,26.8,30.25,SE,135,6.9,8.1,79,0.00,,,0.00,WUHU216HW,2013-03-08 12:21:00,
2013-03-08 06:26:00,32.6,26.8,30.25,SSE,158,7.4,8.5,79,0.00,,,0.00,WUHU216HW,2013-03-08 12:26:00,
2013-03-08 06:31:00,32.6,26.8,30.25,ESE,113,7.8,8.5,79,0.00,,,0.00,WUHU216HW,2013-03-08 12:31:00,
2013-03-08 06:36:00,32.6,26.8,30.25,ESE,113,7.6,8.5,79,0.00,,,0.00,WUHU216HW,2013-03-08 12:36:00,
2013-03-08 06:41:00,32.6,27.1,30.25,SE,135,6.3,9.2,80,0.00,,,0.00,WUHU216HW,2013-03-08 12:41:00,
2013-03-08 06:46:00,32.6,27.1,30.25,ESE,113,6.3,9.2,80,0.00,,,0.00,WUHU216HW,2013-03-08 12:46:00,
2013-03-08 06:51:00,32.8,27.3,30.25,ESE,113,7.6,8.1,80,0.00,,,0.00,WUHU216HW,2013-03-08 12:51:00,
2013-03-08 06:56:00,32.8,27.3,30.25,SSE,158,4.7,8.1,80,0.00,,,0.00,WUHU216HW,2013-03-08 12:56:00,
2013-03-08 07:01:00,32.9,27.5,30.25,ESE,113,5.4,7.6,80,0.00,,,0.00,WUHU216HW,2013-03-08 13:01:00,
2013-03-08 07:06:00,33.1,27.3,30.25,ESE,113,6.9,8.5,79,0.00,,,0.00,WUHU216HW,2013-03-08 13:06:00,
2013-03-08 07:11:00,33.3,27.5,30.25,ESE,113,5.8,8.5,79,0.00,,,0.00,WUHU216HW,2013-03-08 13:11:00,
2013-03-08 07:16:00,33.5,27.6,30.25,ESE,113,8.5,8.7,79,0.00,,,0.00,WUHU216HW,2013-03-08 13:16:00,
2013-03-08 07:21:00,33.8,27.9,30.25,SE,135,4.9,10.3,79,0.00,,,0.00,WUHU216HW,2013-03-08 13:21:00,
2013-03-08 07:26:00,34.2,28.0,30.24,ESE,113,5.4,10.3,78,0.00,,,0.00,WUHU216HW,2013-03-08 13:26:00,
2013-03-08 07:31:00,34.4,28.2,30.24,SE,135,5.8,11.2,78,0.00,,,0.00,WUHU216HW,2013-03-08 13:31:00,
2013-03-08 07:36:00,34.6,28.4,30.24,ESE,113,6.7,11.2,78,0.00,,,0.00,WUHU216HW,2013-03-08 13:36:00,
2013-03-08 07:41:00,34.9,28.4,30.24,SE,135,8.7,10.1,77,0.00,,,0.00,WUHU216HW,2013-03-08 13:41:00,
2013-03-08 07:46:00,35.3,28.7,30.24,ESE,113,9.8,11.0,77,0.00,,,0.00,WUHU216HW,2013-03-08 13:46:00,
2013-03-08 07:51:00,35.6,28.8,30.24,SE,135,7.4,11.0,76,0.00,,,0.00,WUHU216HW,2013-03-08 13:51:00,
2013-03-08 07:56:00,36.2,29.4,30.23,SE,135,8.5,10.7,76,0.00,,,0.00,WUHU216HW,2013-03-08 13:56:00,
2013-03-08 08:01:00,36.9,30.1,30.23,SE,135,9.8,11.2,76,0.00,,,0.00,WUHU216HW,2013-03-08 14:01:00,
2013-03-08 08:06:00,37.1,29.9,30.24,SE,135,9.4,12.8,75,0.00,,,0.00,WUHU216HW,2013-03-08 14:06:00,
2013-03-08 08:11:00,37.6,30.1,30.24,SSE,158,6.9,12.8,74,0.00,,,0.00,WUHU216HW,2013-03-08 14:11:00,
2013-03-08 08:16:00,37.8,30.2,30.24,SE,135,13.9,13.9,74,0.00,,,0.00,WUHU216HW,2013-03-08 14:16:00,
2013-03-08 08:21:00,38.0,30.4,30.24,ESE,113,5.6,13.9,74,0.00,,,0.00,WUHU216HW,2013-03-08 14:21:00,
2013-03-08 08:26:00,38.0,30.4,30.24,ESE,113,10.7,13.9,74,0.00,,,0.00,WUHU216HW,2013-03-08 14:26:00,
2013-03-08 08:31:00,38.3,30.4,30.24,ESE,113,9.6,10.7,73,0.00,,,0.00,WUHU216HW,2013-03-08 14:31:00,
2013-03-08 08:36:00,38.5,30.6,30.25,ESE,113,12.1,12.1,73,0.00,,,0.00,WUHU216HW,2013-03-08 14:36:00,
2013-03-08 08:41:00,38.9,30.6,30.25,SE,135,5.8,12.1,72,0.00,,,0.00,WUHU216HW,2013-03-08 14:41:00,
2013-03-08 08:46:00,39.2,31.0,30.25,SE,135,7.6,9.8,72,0.00,,,0.00,WUHU216HW,2013-03-08 14:46:00,
2013-03-08 08:51:00,39.8,31.2,30.25,SE,135,8.1,9.8,71,0.00,,,0.00,WUHU216HW,2013-03-08 14:51:00,
2013-03-08 08:56:00,40.1,31.1,30.26,SSE,158,11.2,11.9,70,0.00,,,0.00,WUHU216HW,2013-03-08 14:56:00,
2013-03-08 09:01:00,40.7,31.3,30.26,SE,135,9.2,11.9,69,0.00,,,0.00,WUHU216HW,2013-03-08 15:01:00,
2013-03-08 09:06:00,40.9,31.5,30.25,SE,135,5.8,10.7,69,0.00,,,0.00,WUHU216HW,2013-03-08 15:06:00,
2013-03-08 09:11:00,41.2,31.5,30.25,ESE,113,8.1,12.3,68,0.00,,,0.00,WUHU216HW,2013-03-08 15:11:00,
2013-03-08 09:16:00,41.6,31.8,30.25,SSE,158,13.2,13.2,68,0.00,,,0.00,WUHU216HW,2013-03-08 15:16:00,
2013-03-08 09:21:00,42.1,32.3,30.25,SSE,158,6.9,13.2,68,0.00,,,0.00,WUHU216HW,2013-03-08 15:21:00,
2013-03-08 09:26:00,42.7,32.5,30.25,SE,135,8.3,13.2,67,0.00,,,0.00,WUHU216HW,2013-03-08 15:26:00,
2013-03-08 09:31:00,43.0,32.9,30.25,SE,135,6.3,12.1,67,0.00,,,0.00,WUHU216HW,2013-03-08 15:31:00,
2013-03-08 09:36:00,43.4,32.4,30.24,ESE,113,12.1,13.4,65,0.00,,,0.00,WUHU216HW,2013-03-08 15:36:00,
2013-03-08 09:41:00,44.1,32.7,30.24,SE,135,9.8,13.4,64,0.00,,,0.00,WUHU216HW,2013-03-08 15:41:00,
2013-03-08 09:46:00,44.3,32.9,30.24,SSE,158,14.3,14.3,64,0.00,,,0.00,WUHU216HW,2013-03-08 15:46:00,
2013-03-08 09:51:00,44.6,32.9,30.24,South,180,12.1,14.3,63,0.00,,,0.00,WUHU216HW,2013-03-08 15:51:00,
2013-03-08 09:56:00,45.4,33.5,30.24,SE,135,11.6,12.1,63,0.00,,,0.00,WUHU216HW,2013-03-08 15:56:00,
2013-03-08 10:01:00,45.4,32.7,30.23,SSE,158,12.8,12.8,61,0.00,,,0.00,WUHU216HW,2013-03-08 16:01:00,
2013-03-08 10:06:00,46.3,33.6,30.24,ESE,113,11.9,12.8,61,0.00,,,0.00,WUHU216HW,2013-03-08 16:06:00,
2013-03-08 10:11:00,46.4,32.9,30.24,ENE,68,10.1,12.8,59,0.00,,,0.00,WUHU216HW,2013-03-08 16:11:00,
2013-03-08 10:16:00,46.6,33.0,30.23,SE,135,11.4,11.4,59,0.00,,,0.00,WUHU216HW,2013-03-08 16:16:00,
2013-03-08 10:21:00,47.2,34.0,30.23,SE,135,9.4,12.1,60,0.00,,,0.00,WUHU216HW,2013-03-08 16:21:00,
2013-03-08 10:26:00,47.5,33.5,30.24,ESE,113,11.2,12.1,58,0.00,,,0.00,WUHU216HW,2013-03-08 16:26:00,
2013-03-08 10:31:00,47.9,33.4,30.24,ESE,113,6.9,11.2,57,0.00,,,0.00,WUHU216HW,2013-03-08 16:31:00,
2013-03-08 10:36:00,48.2,33.7,30.23,ENE,68,8.7,11.2,57,0.00,,,0.00,WUHU216HW,2013-03-08 16:36:00,
2013-03-08 10:41:00,48.4,34.3,30.24,SSE,158,8.9,14.3,58,0.00,,,0.00,WUHU216HW,2013-03-08 16:41:00,
2013-03-08 10:46:00,48.2,33.2,30.24,ESE,113,13.4,14.3,56,0.00,,,0.00,WUHU216HW,2013-03-08 16:46:00,
2013-03-08 10:51:00,48.6,34.0,30.24,ESE,113,7.8,14.1,57,0.00,,,0.00,WUHU216HW,2013-03-08 16:51:00,
2013-03-08 10:56:00,48.6,33.6,30.23,SE,135,7.2,12.8,56,0.00,,,0.00,WUHU216HW,2013-03-08 16:56:00,
2013-03-08 11:01:00,49.3,34.2,30.23,SE,135,12.5,12.8,56,0.00,,,0.00,WUHU216HW,2013-03-08 17:01:00,
2013-03-08 11:06:00,49.0,33.5,30.24,ESE,113,10.7,13.4,55,0.00,,,0.00,WUHU216HW,2013-03-08 17:06:00,
2013-03-08 11:11:00,49.7,34.1,30.24,SSE,158,9.8,13.4,55,0.00,,,0.00,WUHU216HW,2013-03-08 17:11:00,
2013-03-08 11:16:00,50.0,34.0,30.24,East,90,6.9,9.8,54,0.00,,,0.00,WUHU216HW,2013-03-08 17:16:00,
2013-03-08 11:21:00,50.0,34.0,30.24,SSE,158,9.8,9.8,54,0.00,,,0.00,WUHU216HW,2013-03-08 17:21:00,
2013-03-08 11:26:00,50.2,34.2,30.25,SE,135,11.0,11.0,54,0.00,,,0.00,WUHU216HW,2013-03-08 17:26:00,
2013-03-08 11:31:00,50.2,34.2,30.24,SSE,158,9.4,11.9,54,0.00,,,0.00,WUHU216HW,2013-03-08 17:31:00,
2013-03-08 11:36:00,50.6,34.5,30.23,ESE,113,6.3,13.2,54,0.00,,,0.00,WUHU216HW,2013-03-08 17:36:00,
2013-03-08 11:41:00,50.0,33.6,30.23,SE,135,9.2,13.2,53,0.00,,,0.00,WUHU216HW,2013-03-08 17:41:00,
2013-03-08 11:46:00,50.6,34.0,30.23,ESE,113,10.7,12.1,53,0.00,,,0.00,WUHU216HW,2013-03-08 17:46:00,
2013-03-08 11:51:00,51.1,34.1,30.23,SE,135,7.4,11.0,52,0.00,,,0.00,WUHU216HW,2013-03-08 17:51:00,
2013-03-08 11:56:00,51.5,34.4,30.23,SE,135,8.5,11.4,52,0.00,,,0.00,WUHU216HW,2013-03-08 17:56:00,
2013-03-08 12:01:00,50.9,33.9,30.23,ESE,113,11.2,16.3,52,0.00,,,0.00,WUHU216HW,2013-03-08 18:01:00,
2013-03-08 12:06:00,51.3,34.3,30.23,SE,135,11.9,16.3,52,0.00,,,0.00,WUHU216HW,2013-03-08 18:06:00,
2013-03-08 12:11:00,51.8,34.3,30.23,SE,135,9.8,11.9,51,0.00,,,0.00,WUHU216HW,2013-03-08 18:11:00,
2013-03-08 12:17:00,51.8,34.3,30.23,SE,135,10.1,10.1,51,0.00,,,0.00,WUHU216HW,2013-03-08 18:17:00,
2013-03-08 12:22:00,52.6,34.9,30.23,ESE,113,10.5,10.5,51,0.00,,,0.00,WUHU216HW,2013-03-08 18:22:00,
2013-03-08 12:27:00,52.0,34.9,30.23,East,90,8.1,10.5,52,0.00,,,0.00,WUHU216HW,2013-03-08 18:27:00,
2013-03-08 12:32:00,51.7,35.0,30.23,ESE,113,6.5,10.5,53,0.00,,,0.00,WUHU216HW,2013-03-08 18:32:00,
2013-03-08 12:37:00,51.5,35.3,30.23,North,0,0.0,6.5,54,0.00,,,0.00,WUHU216HW,2013-03-08 18:37:00,
2013-03-08 12:42:00,51.5,35.3,30.22,North,0,0.0,0.0,54,0.00,,,0.00,WUHU216HW,2013-03-08 18:42:00,
2013-03-08 12:47:00,53.3,36.1,30.22,North,0,0.0,0.0,52,0.00,,,0.00,WUHU216HW,2013-03-08 18:47:00,
2013-03-08 12:52:00,52.9,35.3,30.21,North,0,0.0,0.0,51,0.00,,,0.00,WUHU216HW,2013-03-08 18:52:00,
2013-03-08 12:57:00,53.3,35.7,30.21,North,0,0.0,0.0,51,0.00,,,0.00,WUHU216HW,2013-03-08 18:57:00,
2013-03-08 13:02:00,53.6,35.9,30.21,North,0,0.0,0.0,51,0.00,,,0.00,WUHU216HW,2013-03-08 19:02:00,
2013-03-08 13:07:00,52.6,34.5,30.20,North,0,0.0,0.0,50,0.00,,,0.00,WUHU216HW,2013-03-08 19:07:00,
2013-03-08 13:12:00,52.4,34.3,30.20,North,0,0.0,0.0,50,0.00,,,0.00,WUHU216HW,2013-03-08 19:12:00,
2013-03-08 13:17:00,52.0,34.5,30.19,North,0,0.0,0.0,51,0.00,,,0.00,WUHU216HW,2013-03-08 19:17:00,
2013-03-08 13:22:00,51.7,34.6,30.19,North,0,0.0,0.0,52,0.00,,,0.00,WUHU216HW,2013-03-08 19:22:00,
2013-03-08 13:27:00,51.3,34.8,30.19,North,0,0.0,0.0,53,0.00,,,0.00,WUHU216HW,2013-03-08 19:27:00,
2013-03-08 13:32:00,51.5,35.3,30.18,North,0,0.0,0.0,54,0.00,,,0.00,WUHU216HW,2013-03-08 19:32:00,
2013-03-08 13:37:00,52.0,35.4,30.20,North,0,0.0,0.0,53,0.00,,,0.00,WUHU216HW,2013-03-08 19:37:00,
2013-03-08 13:42:00,50.9,34.4,30.19,North,0,0.0,0.0,53,0.00,,,0.00,WUHU216HW,2013-03-08 19:42:00,
2013-03-08 13:47:00,49.9,34.3,30.19,North,0,0.0,0.0,55,0.00,,,0.00,WUHU216HW,2013-03-08 19:47:00,
2013-03-08 13:52:00,49.7,34.1,30.19,ESE,113,13.4,13.4,55,0.00,,,0.00,WUHU216HW,2013-03-08 19:52:00,
2013-03-08 13:57:00,49.0,34.4,30.18,South,180,9.8,15.0,57,0.00,,,0.00,WUHU216HW,2013-03-08 19:57:00,
2013-03-08 14:02:00,49.0,34.4,30.19,SE,135,10.5,15.0,57,0.00,,,0.00,WUHU216HW,2013-03-08 20:02:00,
2013-03-08 14:07:00,48.8,34.2,30.18,SSE,158,10.1,11.2,57,0.00,,,0.00,WUHU216HW,2013-03-08 20:07:00,
2013-03-08 14:12:00,48.6,34.5,30.18,SE,135,11.0,11.2,58,0.00,,,0.00,WUHU216HW,2013-03-08 20:12:00,
2013-03-08 14:17:00,48.4,34.8,30.18,ESE,113,12.3,12.3,59,0.00,,,0.00,WUHU216HW,2013-03-08 20:17:00,
2013-03-08 14:22:00,48.2,34.7,30.18,SE,135,11.4,12.3,59,0.00,,,0.00,WUHU216HW,2013-03-08 20:22:00,
2013-03-08 14:27:00,47.9,34.3,30.18,ESE,113,9.2,12.3,59,0.00,,,0.00,WUHU216HW,2013-03-08 20:27:00,
2013-03-08 14:32:00,47.5,34.4,30.18,ESE,113,8.9,12.8,60,0.00,,,0.00,WUHU216HW,2013-03-08 20:32:00,
2013-03-08 14:37:00,47.2,34.4,30.18,ESE,113,9.8,12.8,61,0.00,,,0.00,WUHU216HW,2013-03-08 20:37:00,
2013-03-08 14:42:00,46.6,33.5,30.18,SE,135,13.2,15.4,60,0.00,,,0.00,WUHU216HW,2013-03-08 20:42:00,
2013-03-08 14:47:00,46.3,33.6,30.18,SSE,158,13.2,16.3,61,0.00,,,0.00,WUHU216HW,2013-03-08 20:47:00,
2013-03-08 14:52:00,46.1,33.8,30.17,SE,135,12.8,16.3,62,0.00,,,0.00,WUHU216HW,2013-03-08 20:52:00,
2013-03-08 14:57:00,45.9,33.6,30.18,SSE,158,14.1,14.1,62,0.00,,,0.00,WUHU216HW,2013-03-08 20:57:00,
2013-03-08 15:02:00,45.7,33.9,30.17,SE,135,11.0,14.1,63,0.00,,,0.00,WUHU216HW,2013-03-08 21:02:00,
2013-03-08 15:07:00,45.4,33.5,30.18,East,90,14.3,14.3,63,0.00,,,0.00,WUHU216HW,2013-03-08 21:07:00,
2013-03-08 15:13:00,45.4,33.5,30.18,ESE,113,10.7,14.3,63,0.00,,,0.00,WUHU216HW,2013-03-08 21:13:00,
2013-03-08 15:18:00,45.2,33.7,30.17,SE,135,10.1,13.4,64,0.00,,,0.00,WUHU216HW,2013-03-08 21:18:00,
2013-03-08 15:23:00,45.2,33.7,30.16,SE,135,16.1,16.1,64,0.00,,,0.00,WUHU216HW,2013-03-08 21:23:00,
2013-03-08 15:28:00,45.4,33.8,30.16,SE,135,10.5,16.1,64,0.00,,,0.00,WUHU216HW,2013-03-08 21:28:00,
2013-03-08 15:33:00,45.4,33.8,30.16,ESE,113,6.3,10.5,64,0.00,,,0.00,WUHU216HW,2013-03-08 21:33:00,
2013-03-08 15:38:00,45.2,33.7,30.16,East,90,10.5,10.5,64,0.00,,,0.00,WUHU216HW,2013-03-08 21:38:00,
2013-03-08 15:43:00,45.4,33.8,30.16,ENE,68,9.2,12.5,64,0.00,,,0.00,WUHU216HW,2013-03-08 21:43:00,
2013-03-08 15:48:00,45.0,33.6,30.16,SE,135,13.2,13.2,64,0.00,,,0.00,WUHU216HW,2013-03-08 21:48:00,
2013-03-08 15:53:00,45.0,33.6,30.15,SE,135,10.3,13.2,64,0.00,,,0.00,WUHU216HW,2013-03-08 21:53:00,
2013-03-08 15:58:00,44.5,33.4,30.15,SSE,158,10.5,14.5,65,0.00,,,0.00,WUHU216HW,2013-03-08 21:58:00,
2013-03-08 16:03:00,44.3,33.2,30.14,SE,135,11.6,14.5,65,0.00,,,0.00,WUHU216HW,2013-03-08 22:03:00,
2013-03-08 16:08:00,44.3,33.2,30.14,East,90,8.9,12.5,65,0.00,,,0.00,WUHU216HW,2013-03-08 22:08:00,
2013-03-08 16:13:00,44.3,33.2,30.14,ESE,113,6.9,10.1,65,0.00,,,0.00,WUHU216HW,2013-03-08 22:13:00,
2013-03-08 16:18:00,44.3,33.2,30.14,ENE,68,12.1,12.1,65,0.00,,,0.00,WUHU216HW,2013-03-08 22:18:00,
2013-03-08 16:23:00,43.9,33.3,30.14,SE,135,8.5,12.1,66,0.00,,,0.00,WUHU216HW,2013-03-08 22:23:00,
2013-03-08 16:28:00,43.9,33.3,30.13,ESE,113,11.0,14.1,66,0.00,,,0.00,WUHU216HW,2013-03-08 22:28:00,
2013-03-08 16:33:00,43.9,33.3,30.13,SE,135,9.6,14.1,66,0.00,,,0.00,WUHU216HW,2013-03-08 22:33:00,
2013-03-08 16:38:00,43.9,33.3,30.13,SE,135,12.8,12.8,66,0.00,,,0.00,WUHU216HW,2013-03-08 22:38:00,
2013-03-08 16:43:00,43.7,33.5,30.13,East,90,8.5,12.8,67,0.00,,,0.00,WUHU216HW,2013-03-08 22:43:00,
2013-03-08 16:48:00,43.7,33.1,30.12,ESE,113,11.0,11.9,66,0.00,,,0.00,WUHU216HW,2013-03-08 22:48:00,
2013-03-08 16:53:00,43.7,33.5,30.13,SE,135,6.7,11.2,67,0.00,,,0.00,WUHU216HW,2013-03-08 22:53:00,
2013-03-08 16:58:00,43.9,33.7,30.12,ENE,68,10.1,11.6,67,0.00,,,0.00,WUHU216HW,2013-03-08 22:58:00,
2013-03-08 17:03:00,43.9,33.7,30.12,SE,135,12.1,13.0,67,0.00,,,0.00,WUHU216HW,2013-03-08 23:03:00,
2013-03-08 17:08:00,43.9,33.7,30.12,ESE,113,8.5,13.0,67,0.00,,,0.00,WUHU216HW,2013-03-08 23:08:00,
2013-03-08 17:13:00,43.7,33.5,30.12,ESE,113,6.7,12.1,67,0.00,,,0.00,WUHU216HW,2013-03-08 23:13:00,
2013-03-08 17:18:00,43.9,33.7,30.13,SE,135,5.6,9.8,67,0.00,,,0.00,WUHU216HW,2013-03-08 23:18:00,
2013-03-08 17:23:00,43.9,33.7,30.13,ESE,113,4.3,8.3,67,0.00,,,0.00,WUHU216HW,2013-03-08 23:23:00,
2013-03-08 17:28:00,44.1,33.9,30.13,SE,135,7.8,8.1,67,0.00,,,0.00,WUHU216HW,2013-03-08 23:28:00,
2013-03-08 17:33:00,44.3,34.0,30.13,ENE,68,6.3,8.1,67,0.00,,,0.00,WUHU216HW,2013-03-08 23:33:00,
2013-03-08 17:38:00,44.3,34.0,30.13,ESE,113,6.0,8.1,67,0.00,,,0.00,WUHU216HW,2013-03-08 23:38:00,
2013-03-08 17:43:00,44.1,33.9,30.13,SE,135,4.9,9.6,67,0.00,,,0.00,WUHU216HW,2013-03-08 23:43:00,
2013-03-08 17:48:00,44.1,33.9,30.13,ESE,113,5.4,9.6,67,0.00,,,0.00,WUHU216HW,2013-03-08 23:48:00,
2013-03-08 17:53:00,44.1,34.2,30.13,ENE,68,4.7,7.6,68,0.00,,,0.00,WUHU216HW,2013-03-08 23:53:00,
2013-03-08 17:58:00,44.1,34.2,30.13,East,90,3.6,7.6,68,0.00,,,0.00,WUHU216HW,2013-03-08 23:58:00,
2013-03-08 18:03:00,44.1,34.2,30.13,East,90,6.0,6.0,68,0.00,,,0.00,WUHU216HW,2013-03-09 00:03:00,
2013-03-08 18:08:00,44.1,34.2,30.13,East,90,4.7,6.0,68,0.00,,,0.00,WUHU216HW,2013-03-09 00:08:00,
2013-03-08 18:13:00,44.1,34.2,30.13,SE,135,4.0,6.9,68,0.00,,,0.00,WUHU216HW,2013-03-09 00:13:00,
2013-03-08 18:18:00,44.1,34.2,30.13,ESE,113,4.9,6.9,68,0.00,,,0.00,WUHU216HW,2013-03-09 00:18:00,
2013-03-08 18:23:00,43.9,34.0,30.12,ESE,113,5.4,8.1,68,0.00,,,0.00,WUHU216HW,2013-03-09 00:23:00,
2013-03-08 18:28:00,43.9,34.0,30.12,East,90,4.0,8.1,68,0.00,,,0.00,WUHU216HW,2013-03-09 00:28:00,
2013-03-08 18:33:00,43.9,34.0,30.12,East,90,5.1,7.8,68,0.00,,,0.00,WUHU216HW,2013-03-09 00:33:00,
2013-03-08 18:38:00,43.9,34.0,30.12,ENE,68,3.8,7.6,68,0.00,,,0.00,WUHU216HW,2013-03-09 00:38:00,
2013-03-08 18:43:00,43.9,34.0,30.12,ESE,113,4.7,7.6,68,0.00,,,0.00,WUHU216HW,2013-03-09 00:43:00,
2013-03-08 18:48:00,43.9,34.0,30.12,SE,135,4.9,7.2,68,0.00,,,0.00,WUHU216HW,2013-03-09 00:48:00,
2013-03-08 18:53:00,43.9,34.0,30.12,East,90,5.6,8.1,68,0.00,,,0.00,WUHU216HW,2013-03-09 00:53:00,
2013-03-08 18:58:00,43.7,33.8,30.12,East,90,5.4,8.1,68,0.00,,,0.00,WUHU216HW,2013-03-09 00:58:00,
2013-03-08 19:03:00,43.7,33.8,30.12,East,90,5.1,7.6,68,0.00,,,0.00,WUHU216HW,2013-03-09 01:03:00,
2013-03-08 19:08:00,43.6,33.8,30.12,ESE,113,7.6,7.6,68,0.00,,,0.00,WUHU216HW,2013-03-09 01:08:00,
2013-03-08 19:13:00,43.6,33.8,30.12,ESE,113,4.5,7.6,68,0.00,,,0.00,WUHU216HW,2013-03-09 01:13:00,
2013-03-08 19:18:00,43.6,33.8,30.12,SE,135,6.5,8.3,68,0.00,,,0.00,WUHU216HW,2013-03-09 01:18:00,
2013-03-08 19:23:00,43.4,33.9,30.11,ESE,113,5.1,8.3,69,0.00,,,0.00,WUHU216HW,2013-03-09 01:23:00,
2013-03-08 19:28:00,43.4,34.3,30.11,ESE,113,4.7,7.2,70,0.00,,,0.00,WUHU216HW,2013-03-09 01:28:00,
2013-03-08 19:33:00,43.2,34.2,30.12,ESE,113,3.4,6.9,70,0.00,,,0.00,WUHU216HW,2013-03-09 01:33:00,
2013-03-08 19:38:00,43.0,34.0,30.12,ESE,113,4.7,6.9,70,0.00,,,0.00,WUHU216HW,2013-03-09 01:38:00,
2013-03-08 19:43:00,43.0,34.3,30.11,SE,135,5.8,6.7,71,0.00,,,0.00,WUHU216HW,2013-03-09 01:43:00,
2013-03-08 19:48:00,42.8,34.2,30.11,East,90,3.4,6.5,71,0.00,,,0.00,WUHU216HW,2013-03-09 01:48:00,
2013-03-08 19:53:00,42.8,33.8,30.11,East,90,4.9,6.3,70,0.00,,,0.00,WUHU216HW,2013-03-09 01:53:00,
2013-03-08 19:58:00,42.8,34.2,30.11,East,90,3.1,6.3,71,0.00,,,0.00,WUHU216HW,2013-03-09 01:58:00,
2013-03-08 20:03:00,43.0,34.0,30.11,ESE,113,4.9,6.9,70,0.00,,,0.00,WUHU216HW,2013-03-09 02:03:00,
2013-03-08 20:08:00,43.0,34.3,30.10,NNE,23,3.8,6.9,71,0.00,,,0.00,WUHU216HW,2013-03-09 02:08:00,
2013-03-08 20:13:00,42.8,33.8,30.10,East,90,6.7,6.7,70,0.00,,,0.00,WUHU216HW,2013-03-09 02:13:00,
2013-03-08 20:18:00,42.8,34.2,30.10,NE,45,6.3,6.7,71,0.00,,,0.00,WUHU216HW,2013-03-09 02:18:00,
2013-03-08 20:23:00,42.8,34.2,30.11,ENE,68,7.2,8.5,71,0.00,,,0.00,WUHU216HW,2013-03-09 02:23:00,
2013-03-08 20:28:00,42.7,34.0,30.10,SE,135,6.3,8.5,71,0.00,,,0.00,WUHU216HW,2013-03-09 02:28:00,
2013-03-08 20:33:00,42.5,34.1,30.10,ESE,113,5.6,6.9,72,0.00,,,0.00,WUHU216HW,2013-03-09 02:33:00,
2013-03-08 20:38:00,42.3,34.3,30.10,East,90,5.4,7.2,73,0.00,,,0.00,WUHU216HW,2013-03-09 02:38:00,
2013-03-08 20:43:00,42.1,34.1,30.10,SE,135,6.9,7.6,73,0.00,,,0.00,WUHU216HW,2013-03-09 02:43:00,
2013-03-08 20:48:00,41.9,34.2,30.10,East,90,3.8,7.6,74,0.00,,,0.00,WUHU216HW,2013-03-09 02:48:00,
2013-03-08 20:53:00,42.1,34.1,30.09,SE,135,5.6,7.4,73,0.00,,,0.00,WUHU216HW,2013-03-09 02:53:00,
2013-03-08 20:58:00,42.1,34.4,30.09,SE,135,5.4,6.5,74,0.00,,,0.00,WUHU216HW,2013-03-09 02:58:00,
2013-03-08 21:03:00,42.1,34.4,30.10,ESE,113,5.6,5.6,74,0.00,,,0.00,WUHU216HW,2013-03-09 03:03:00,
2013-03-08 21:08:00,42.7,34.9,30.09,SE,135,6.3,6.7,74,0.00,,,0.00,WUHU216HW,2013-03-09 03:08:00,
2013-03-08 21:13:00,42.8,34.8,30.10,ESE,113,7.4,7.4,73,0.00,,,0.00,WUHU216HW,2013-03-09 03:13:00,
2013-03-08 21:18:00,42.8,35.1,30.10,SE,135,7.2,7.4,74,0.00,,,0.00,WUHU216HW,2013-03-09 03:18:00,
2013-03-08 21:23:00,43.0,35.3,30.09,ESE,113,8.9,8.9,74,0.00,,,0.00,WUHU216HW,2013-03-09 03:23:00,
2013-03-08 21:28:00,43.2,35.5,30.09,SE,135,11.6,11.6,74,0.00,,,0.00,WUHU216HW,2013-03-09 03:28:00,
2013-03-08 21:33:00,43.4,35.6,30.09,SE,135,9.2,11.6,74,0.00,,,0.00,WUHU216HW,2013-03-09 03:33:00,
2013-03-08 21:38:00,43.4,35.6,30.09,SE,135,10.3,10.3,74,0.00,,,0.00,WUHU216HW,2013-03-09 03:38:00,
2013-03-08 21:43:00,43.4,35.6,30.09,SE,135,5.8,10.3,74,0.00,,,0.00,WUHU216HW,2013-03-09 03:43:00,
2013-03-08 21:48:00,43.6,35.8,30.09,SE,135,8.1,12.1,74,0.00,,,0.00,WUHU216HW,2013-03-09 03:48:00,
2013-03-08 21:53:00,43.6,35.8,30.09,SE,135,8.9,12.1,74,0.00,,,0.00,WUHU216HW,2013-03-09 03:53:00,
2013-03-08 21:58:00,43.7,35.6,30.09,SE,135,4.9,11.4,73,0.00,,,0.00,WUHU216HW,2013-03-09 03:58:00,
2013-03-08 22:03:00,43.9,36.2,30.09,SSE,158,7.2,10.5,74,0.00,,,0.00,WUHU216HW,2013-03-09 04:03:00,
2013-03-08 22:08:00,43.9,35.8,30.09,SSE,158,6.0,8.9,73,0.00,,,0.00,WUHU216HW,2013-03-09 04:08:00,
2013-03-08 22:13:00,44.3,35.8,30.09,South,180,4.7,8.9,72,0.00,,,0.00,WUHU216HW,2013-03-09 04:13:00,
2013-03-08 22:18:00,44.6,36.2,30.08,SSE,158,11.9,11.9,72,0.00,,,0.00,WUHU216HW,2013-03-09 04:18:00,
2013-03-08 22:23:00,45.0,35.8,30.08,SE,135,15.7,15.7,70,0.00,,,0.00,WUHU216HW,2013-03-09 04:23:00,
2013-03-08 22:28:00,45.2,36.0,30.08,SSE,158,8.7,15.7,70,0.00,,,0.00,WUHU216HW,2013-03-09 04:28:00,
2013-03-08 22:33:00,45.4,36.2,30.08,SE,135,11.0,15.7,70,0.00,,,0.00,WUHU216HW,2013-03-09 04:33:00,
2013-03-08 22:38:00,45.4,36.6,30.08,SE,135,11.0,13.4,71,0.00,,,0.00,WUHU216HW,2013-03-09 04:38:00,
2013-03-08 22:43:00,44.8,36.6,30.08,ESE,113,13.2,13.4,73,0.00,,,0.00,WUHU216HW,2013-03-09 04:43:00,
2013-03-08 22:48:00,44.3,36.8,30.08,SSE,158,13.9,18.6,75,0.00,,,0.00,WUHU216HW,2013-03-09 04:48:00,
2013-03-08 22:53:00,43.6,37.2,30.08,ESE,113,9.4,18.6,78,0.00,,,0.00,WUHU216HW,2013-03-09 04:53:00,
2013-03-08 22:58:00,43.2,37.4,30.08,SE,135,9.8,14.3,80,0.00,,,0.00,WUHU216HW,2013-03-09 04:58:00,
2013-03-08 23:00:00,43.0,37.3,30.07,SSE,158,10.5,14.3,80,0.00,,,0.00,WUHU216HW,2013-03-09 05:00:00,
2013-03-08 23:01:00,43.0,37.3,30.07,SSE,158,10.5,12.8,80,0.00,,,0.00,WUHU216HW,2013-03-09 05:01:00,
2013-03-08 23:06:00,42.7,37.2,30.06,ESE,113,10.5,11.9,81,0.00,,,0.00,WUHU216HW,2013-03-09 05:06:00,
2013-03-08 23:11:00,42.5,37.0,30.06,ESE,113,11.4,11.9,81,0.00,,,0.00,WUHU216HW,2013-03-09 05:11:00,
2013-03-08 23:16:00,42.5,37.4,30.06,SE,135,9.2,11.4,82,0.00,,,0.00,WUHU216HW,2013-03-09 05:16:00,
2013-03-08 23:21:00,42.7,37.2,30.06,SE,135,12.3,12.3,81,0.00,,,0.00,WUHU216HW,2013-03-09 05:21:00,
2013-03-08 23:26:00,42.8,37.4,30.05,SSE,158,10.3,12.3,81,0.00,,,0.00,WUHU216HW,2013-03-09 05:26:00,
2013-03-08 23:31:00,42.8,37.4,30.05,South,180,9.8,12.3,81,0.00,,,0.00,WUHU216HW,2013-03-09 05:31:00,
2013-03-08 23:36:00,42.7,37.2,30.05,SE,135,12.8,12.8,81,0.00,,,0.00,WUHU216HW,2013-03-09 05:36:00,
2013-03-08 23:41:00,42.7,36.9,30.05,SSE,158,11.0,12.8,80,0.00,,,0.00,WUHU216HW,2013-03-09 05:41:00,
2013-03-08 23:46:00,42.7,36.5,30.04,SE,135,10.7,12.1,79,0.00,,,0.00,WUHU216HW,2013-03-09 05:46:00,
2013-03-08 23:51:00,42.7,36.5,30.04,SSE,158,7.4,12.1,79,0.00,,,0.00,WUHU216HW,2013-03-09 05:51:00,
2013-03-08 23:56:00,42.7,36.5,30.03,ESE,113,11.9,13.6,79,0.00,,,0.00,WUHU216HW,2013-03-09 05:56:00,